sensor_id;sensor_type;location;lat;lon;timestamp;pressure;altitude;pressure_sealevel;temperature;humidity
53699;BME280;68408;53.952;27.612;2023-04-08T00:01:06;1018.4;;;9.6;75.8
53699;BME280;68408;53.952;27.612;2023-04-08T00:06:40;1018.3;;;9.6;76
53699;BME280;68408;53.952;27.612;2023-04-08T00:11:38;1018.3;;;9.6;76.1
53699;BME280;68408;53.952;27.612;2023-04-08T00:15:54;1018.3;;;9.6;76.3
53699;BME280;68408;53.952;27.612;2023-04-08T00:21:14;1018.3;;;9.6;76.3
53699;BME280;68408;53.952;27.612;2023-04-08T00:26:06;1018.3;;;9.6;76.5
53699;BME280;68408;53.952;27.612;2023-04-08T00:31:38;1018.3;;;9.5;76.8
53699;BME280;68408;53.952;27.612;2023-04-08T00:36:38;1018.3;;;9.5;77.1
53699;BME280;68408;53.952;27.612;2023-04-08T00:41:04;1018.4;;;9.5;77.2
53699;BME280;68408;53.952;27.612;2023-04-08T00:46:16;1018.4;;;9.5;77.4
53699;BME280;68408;53.952;27.612;2023-04-08T00:50:54;1018.4;;;9.6;77.4
53699;BME280;68408;53.952;27.612;2023-04-08T00:56:24;1018.4;;;9.7;77.2
53699;BME280;68408;53.952;27.612;2023-04-08T01:01:40;1018.4;;;9.8;77
53699;BME280;68408;53.952;27.612;2023-04-08T01:05:55;1018.4;;;9.9;76.5
53699;BME280;68408;53.952;27.612;2023-04-08T01:11:22;1018.4;;;9.9;76.3
53699;BME280;68408;53.952;27.612;2023-04-08T01:16:04;1018.5;;;9.9;76.3
53699;BME280;68408;53.952;27.612;2023-04-08T01:21:26;1018.5;;;9.9;76.1
53699;BME280;68408;53.952;27.612;2023-04-08T01:26:38;1018.5;;;10;76
53699;BME280;68408;53.952;27.612;2023-04-08T01:31:04;1018.5;;;10.1;75.8
53699;BME280;68408;53.952;27.612;2023-04-08T01:36:14;1018.5;;;10.1;75.6
53699;BME280;68408;53.952;27.612;2023-04-08T01:40:54;1018.5;;;10.2;75.3
53699;BME280;68408;53.952;27.612;2023-04-08T01:46:24;1018.6;;;10.3;75
53699;BME280;68408;53.952;27.612;2023-04-08T01:51:38;1018.6;;;10.3;74.8
53699;BME280;68408;53.952;27.612;2023-04-08T01:56:22;1018.6;;;10.3;74.7
53699;BME280;68408;53.952;27.612;2023-04-08T02:01:17;1018.5;;;10.3;74.8
53699;BME280;68408;53.952;27.612;2023-04-08T02:05:54;1018.6;;;10.2;75
53699;BME280;68408;53.952;27.612;2023-04-08T02:11:26;1018.5;;;10.2;74.8
53699;BME280;68408;53.952;27.612;2023-04-08T02:16:41;1018.6;;;10.1;75
53699;BME280;68408;53.952;27.612;2023-04-08T02:21:26;1018.5;;;10.1;75
53699;BME280;68408;53.952;27.612;2023-04-08T02:26:16;1018.5;;;10.1;75
53699;BME280;68408;53.952;27.612;2023-04-08T02:30:54;1018.6;;;10.1;75
53699;BME280;68408;53.952;27.612;2023-04-08T02:36:26;1018.6;;;10;74.9
53699;BME280;68408;53.952;27.612;2023-04-08T02:41:40;1018.6;;;10.1;75
53699;BME280;68408;53.952;27.612;2023-04-08T02:46:18;1018.6;;;10.2;74.7
53699;BME280;68408;53.952;27.612;2023-04-08T02:51:40;1018.6;;;10.3;74.5
53699;BME280;68408;53.952;27.612;2023-04-08T02:55:54;1018.5;;;10.3;74.3
53699;BME280;68408;53.952;27.612;2023-04-08T03:01:26;1018.5;;;10.3;74.2
53699;BME280;68408;53.952;27.612;2023-04-08T03:06:40;1018.5;;;10.3;74.2
53699;BME280;68408;53.952;27.612;2023-04-08T03:11:26;1018.5;;;10.2;74.2
53699;BME280;68408;53.952;27.612;2023-04-08T03:45:54;1018.5;;;9.9;74.9
53699;BME280;68408;53.952;27.612;2023-04-08T03:51:26;1018.6;;;10;74.8
53699;BME280;68408;53.952;27.612;2023-04-08T03:56:40;1018.6;;;9.9;74.8
53699;BME280;68408;53.952;27.612;2023-04-08T04:01:12;1018.6;;;10;74.8
53699;BME280;68408;53.952;27.612;2023-04-08T04:06:16;1018.6;;;10;74.6
53699;BME280;68408;53.952;27.612;2023-04-08T04:11:04;1018.7;;;10;74.4
53699;BME280;68408;53.952;27.612;2023-04-08T04:16:26;1018.7;;;10.1;74.3
53699;BME280;68408;53.952;27.612;2023-04-08T04:21:40;1018.7;;;10;74.3
53699;BME280;68408;53.952;27.612;2023-04-08T04:26:27;1018.7;;;10;74.3
53699;BME280;68408;53.952;27.612;2023-04-08T04:30:54;1018.8;;;9.9;74.5
53699;BME280;68408;53.952;27.612;2023-04-08T04:36:07;1018.8;;;9.8;74.6
53699;BME280;68408;53.952;27.612;2023-04-08T04:41:26;1018.9;;;9.7;74.8
53699;BME280;68408;53.952;27.612;2023-04-08T04:46:33;1018.9;;;9.7;75
53699;BME280;68408;53.952;27.612;2023-04-08T04:51:26;1018.9;;;9.7;75.2
53699;BME280;68408;53.952;27.612;2023-04-08T04:56:16;1018.9;;;9.7;75.1
53699;BME280;68408;53.952;27.612;2023-04-08T05:00:55;1019;;;9.7;75.2
53699;BME280;68408;53.952;27.612;2023-04-08T05:06:27;1019;;;9.7;75
53699;BME280;68408;53.952;27.612;2023-04-08T05:11:27;1019;;;9.7;75
53699;BME280;68408;53.952;27.612;2023-04-08T05:16:26;1019;;;9.7;75
53699;BME280;68408;53.952;27.612;2023-04-08T05:21:15;1019;;;9.8;74.8
53699;BME280;68408;53.952;27.612;2023-04-08T05:26:06;1019;;;9.7;74.7
53699;BME280;68408;53.952;27.612;2023-04-08T05:31:39;1019.1;;;9.8;74.7
53699;BME280;68408;53.952;27.612;2023-04-08T05:36:29;1019;;;9.8;74.7
53699;BME280;68408;53.952;27.612;2023-04-08T05:41:11;1019;;;9.8;74.7
53699;BME280;68408;53.952;27.612;2023-04-08T05:46:41;1019.1;;;9.9;74.5
53699;BME280;68408;53.952;27.612;2023-04-08T05:51:05;1019.1;;;10;74.2
53699;BME280;68408;53.952;27.612;2023-04-08T05:56:41;1019.2;;;10.1;74.3
53699;BME280;68408;53.952;27.612;2023-04-08T06:01:31;1019.3;;;10.2;73.8
53699;BME280;68408;53.952;27.612;2023-04-08T06:06:11;1019.4;;;10.4;73.2
53699;BME280;68408;53.952;27.612;2023-04-08T06:11:41;1019.4;;;10.6;72.9
53699;BME280;68408;53.952;27.612;2023-04-08T06:16:12;1019.4;;;10.8;72.4
53699;BME280;68408;53.952;27.612;2023-04-08T06:21:21;1019.4;;;10.9;71.7
53699;BME280;68408;53.952;27.612;2023-04-08T06:26:33;1019.4;;;11;70.9
53699;BME280;68408;53.952;27.612;2023-04-08T06:30:55;1019.4;;;11.1;70.6
53699;BME280;68408;53.952;27.612;2023-04-08T06:36:41;1019.4;;;11.1;70.1
53699;BME280;68408;53.952;27.612;2023-04-08T06:40:55;1019.4;;;11.2;70.1
53699;BME280;68408;53.952;27.612;2023-04-08T06:46:41;1019.4;;;11.4;69.7
53699;BME280;68408;53.952;27.612;2023-04-08T06:51:31;1019.3;;;11.5;69.1
53699;BME280;68408;53.952;27.612;2023-04-08T06:56:11;1019.3;;;11.5;68.9
53699;BME280;68408;53.952;27.612;2023-04-08T07:01:39;1019.3;;;11.6;68.6
53699;BME280;68408;53.952;27.612;2023-04-08T07:06:05;1019.3;;;11.8;68.7
53699;BME280;68408;53.952;27.612;2023-04-08T07:11:41;1019.3;;;11.9;68.1
53699;BME280;68408;53.952;27.612;2023-04-08T07:16:41;1019.3;;;12.1;67.4
53699;BME280;68408;53.952;27.612;2023-04-08T07:21:11;1019.3;;;12.1;67.3
53699;BME280;68408;53.952;27.612;2023-04-08T07:26:41;1019.4;;;12.3;66.9
53699;BME280;68408;53.952;27.612;2023-04-08T07:30:55;1019.4;;;12.5;66.1
53699;BME280;68408;53.952;27.612;2023-04-08T07:36:41;1019.4;;;12.6;65.7
53699;BME280;68408;53.952;27.612;2023-04-08T07:41:41;1019.4;;;13;65
53699;BME280;68408;53.952;27.612;2023-04-08T07:46:11;1019.3;;;13.3;64.1
53699;BME280;68408;53.952;27.612;2023-04-08T07:51:41;1019.3;;;13.5;63.5
53699;BME280;68408;53.952;27.612;2023-04-08T07:56:09;1019.3;;;13.8;63
53699;BME280;68408;53.952;27.612;2023-04-08T08:01:43;1019.3;;;13.8;62.5
53699;BME280;68408;53.952;27.612;2023-04-08T08:06:33;1019.3;;;13.8;62.4
53699;BME280;68408;53.952;27.612;2023-04-08T08:11:01;1019.3;;;13.9;62.6
53699;BME280;68408;53.952;27.612;2023-04-08T08:16:41;1019.3;;;14.1;62.1
53699;BME280;68408;53.952;27.612;2023-04-08T08:21:05;1019.3;;;14.2;61.7
53699;BME280;68408;53.952;27.612;2023-04-08T08:26:41;1019.3;;;14.4;61.3
53699;BME280;68408;53.952;27.612;2023-04-08T08:31:33;1019.4;;;14.7;60.6
53699;BME280;68408;53.952;27.612;2023-04-08T08:36:05;1019.4;;;15;59.8
53699;BME280;68408;53.952;27.612;2023-04-08T08:41:41;1019.4;;;15.2;59.7
53699;BME280;68408;53.952;27.612;2023-04-08T08:45:55;1019.4;;;15.5;58.6
53699;BME280;68408;53.952;27.612;2023-04-08T08:51:35;1019.3;;;15.7;58.2
53699;BME280;68408;53.952;27.612;2023-04-08T08:56:31;1019.3;;;16;57.3
53699;BME280;68408;53.952;27.612;2023-04-08T09:00:55;1019.3;;;16.2;56.8
53699;BME280;68408;53.952;27.612;2023-04-08T09:06:41;1019.3;;;16.3;56.7
53699;BME280;68408;53.952;27.612;2023-04-08T09:11:12;1019.3;;;16.4;55.7
53699;BME280;68408;53.952;27.612;2023-04-08T09:16:41;1019.3;;;16.5;55.6
53699;BME280;68408;53.952;27.612;2023-04-08T09:21:33;1019.4;;;16.3;54.7
53699;BME280;68408;53.952;27.612;2023-04-08T09:26:06;1019.4;;;16.1;55.1
53699;BME280;68408;53.952;27.612;2023-04-08T09:31:43;1019.4;;;16.2;55.2
53699;BME280;68408;53.952;27.612;2023-04-08T09:36:05;1019.5;;;16.3;55
53699;BME280;68408;53.952;27.612;2023-04-08T09:41:19;1019.5;;;16.4;54.8
53699;BME280;68408;53.952;27.612;2023-04-08T09:46:43;1019.5;;;16.3;54.5
53699;BME280;68408;53.952;27.612;2023-04-08T09:50:55;1019.5;;;16.1;54.9
53699;BME280;68408;53.952;27.612;2023-04-08T09:56:43;1019.5;;;16.1;55.3
53699;BME280;68408;53.952;27.612;2023-04-08T10:01:11;1019.5;;;16.1;54.9
53699;BME280;68408;53.952;27.612;2023-04-08T10:06:26;1019.5;;;15.9;54.6
53699;BME280;68408;53.952;27.612;2023-04-08T10:11:43;1019.5;;;15.7;54.6
53699;BME280;68408;53.952;27.612;2023-04-08T10:16:17;1019.6;;;15.7;55.1
53699;BME280;68408;53.952;27.612;2023-04-08T10:21:41;1019.6;;;15.6;55.5
53699;BME280;68408;53.952;27.612;2023-04-08T10:26:37;1019.5;;;15.8;55.5
53699;BME280;68408;53.952;27.612;2023-04-08T10:31:21;1019.5;;;16;55.1
53699;BME280;68408;53.952;27.612;2023-04-08T10:36:41;1019.4;;;16.3;54.5
53699;BME280;68408;53.952;27.612;2023-04-08T10:40:55;1019.4;;;16.4;54.4
53699;BME280;68408;53.952;27.612;2023-04-08T10:46:43;1019.4;;;16.4;54
53699;BME280;68408;53.952;27.612;2023-04-08T10:51:11;1019.3;;;16.4;53.6
53699;BME280;68408;53.952;27.612;2023-04-08T10:56:15;1019.3;;;16.6;52.8
53699;BME280;68408;53.952;27.612;2023-04-08T11:01:45;1019.3;;;16.7;52.2
53699;BME280;68408;53.952;27.612;2023-04-08T11:05:56;1019.3;;;16.9;52
53699;BME280;68408;53.952;27.612;2023-04-08T11:11:43;1019.3;;;17.2;51.3
53699;BME280;68408;53.952;27.612;2023-04-08T11:16:05;1019.3;;;17.4;51
53699;BME280;68408;53.952;27.612;2023-04-08T11:21:19;1019.2;;;17.5;50.4
53699;BME280;68408;53.952;27.612;2023-04-08T11:26:43;1019.2;;;17.5;50.3
53699;BME280;68408;53.952;27.612;2023-04-08T11:30:55;1019.1;;;17.5;50.5
53699;BME280;68408;53.952;27.612;2023-04-08T11:36:43;1019.1;;;17.6;50.1
53699;BME280;68408;53.952;27.612;2023-04-08T11:41:05;1019.1;;;17.4;50.4
53699;BME280;68408;53.952;27.612;2023-04-08T11:46:25;1019.1;;;17.3;50.6
53699;BME280;68408;53.952;27.612;2023-04-08T11:51:52;1019.1;;;17.3;50.6
53699;BME280;68408;53.952;27.612;2023-04-08T11:55:55;1019.1;;;17.4;50.6
53699;BME280;68408;53.952;27.612;2023-04-08T12:01:43;1019.1;;;17.3;50.6
53699;BME280;68408;53.952;27.612;2023-04-08T12:05:55;1019.1;;;17.1;50.9
53699;BME280;68408;53.952;27.612;2023-04-08T12:11:25;1019;;;16.9;51.3
53699;BME280;68408;53.952;27.612;2023-04-08T12:16:43;1019;;;16.9;51.6
53699;BME280;68408;53.952;27.612;2023-04-08T12:21:11;1018.9;;;17;51.3
53699;BME280;68408;53.952;27.612;2023-04-08T12:26:43;1018.9;;;16.9;51.5
53699;BME280;68408;53.952;27.612;2023-04-08T12:30:55;1018.9;;;16.9;51.6
53699;BME280;68408;53.952;27.612;2023-04-08T12:36:19;1018.9;;;16.8;51.8
53699;BME280;68408;53.952;27.612;2023-04-08T12:41:45;1018.8;;;16.7;51.9
53699;BME280;68408;53.952;27.612;2023-04-08T12:46:01;1018.8;;;16.7;51.9
53699;BME280;68408;53.952;27.612;2023-04-08T12:51:43;1018.8;;;16.8;51.9
53699;BME280;68408;53.952;27.612;2023-04-08T12:56:19;1018.7;;;17;51.6
53699;BME280;68408;53.952;27.612;2023-04-08T13:01:13;1018.7;;;17;51.6
53699;BME280;68408;53.952;27.612;2023-04-08T13:06:41;1018.7;;;17;51.3
53699;BME280;68408;53.952;27.612;2023-04-08T13:11:11;1018.6;;;17.2;51.2
53699;BME280;68408;53.952;27.612;2023-04-08T13:16:43;1018.5;;;17.5;50.7
53699;BME280;68408;53.952;27.612;2023-04-08T13:20:55;1018.5;;;17.6;50
53699;BME280;68408;53.952;27.612;2023-04-08T13:26:25;1018.4;;;17.5;49.8
53699;BME280;68408;53.952;27.612;2023-04-08T13:31:41;1018.4;;;17.5;49.5
53699;BME280;68408;53.952;27.612;2023-04-08T13:36:11;1018.4;;;17.5;49.2
53699;BME280;68408;53.952;27.612;2023-04-08T13:41:35;1018.3;;;17.6;48.4
53699;BME280;68408;53.952;27.612;2023-04-08T13:46:05;1018.3;;;17.7;48.1
53699;BME280;68408;53.952;27.612;2023-04-08T13:51:27;1018.2;;;17.8;47.3
53699;BME280;68408;53.952;27.612;2023-04-08T13:56:09;1018.2;;;17.9;47.6
53699;BME280;68408;53.952;27.612;2023-04-08T14:01:11;1018.2;;;17.8;47.9
53699;BME280;68408;53.952;27.612;2023-04-08T14:06:43;1018.2;;;17.5;48.1
53699;BME280;68408;53.952;27.612;2023-04-08T14:10:55;1018.2;;;17.3;48.7
53699;BME280;68408;53.952;27.612;2023-04-08T14:16:19;1018.2;;;17.1;49.5
53699;BME280;68408;53.952;27.612;2023-04-08T14:21:05;1018.1;;;17;50
53699;BME280;68408;53.952;27.612;2023-04-08T14:25:55;1018;;;17;50.1
53699;BME280;68408;53.952;27.612;2023-04-08T14:31:45;1018;;;17;49.8
53699;BME280;68408;53.952;27.612;2023-04-08T14:35:55;1018.1;;;16.7;50.2
53699;BME280;68408;53.952;27.612;2023-04-08T14:41:27;1018.1;;;16.5;50.6
53699;BME280;68408;53.952;27.612;2023-04-08T14:46:05;1018;;;16.2;51.2
53699;BME280;68408;53.952;27.612;2023-04-08T14:51:03;1018.1;;;16;51.7
53699;BME280;68408;53.952;27.612;2023-04-08T14:56:45;1018.1;;;15.9;52.3
53699;BME280;68408;53.952;27.612;2023-04-08T15:00:55;1018.1;;;15.8;52.7
53699;BME280;68408;53.952;27.612;2023-04-08T15:06:19;1018.1;;;15.7;53
53699;BME280;68408;53.952;27.612;2023-04-08T15:11:21;1018.1;;;15.7;53.1
53699;BME280;68408;53.952;27.612;2023-04-08T15:16:01;1018.2;;;15.7;52.9
53699;BME280;68408;53.952;27.612;2023-04-08T15:21:43;1018.2;;;15.7;53
53699;BME280;68408;53.952;27.612;2023-04-08T15:26:19;1018.2;;;15.6;53.4
53699;BME280;68408;53.952;27.612;2023-04-08T15:31:25;1018.1;;;15.5;53.6
53699;BME280;68408;53.952;27.612;2023-04-08T15:36:21;1018.2;;;15.4;53.6
53699;BME280;68408;53.952;27.612;2023-04-08T15:41:14;1018.1;;;15.3;53.9
53699;BME280;68408;53.952;27.612;2023-04-08T15:46:41;1018.1;;;15.2;54.2
53699;BME280;68408;53.952;27.612;2023-04-08T15:51:41;1018.1;;;15.1;54.6
53699;BME280;68408;53.952;27.612;2023-04-08T15:56:25;1018.2;;;15;54.8
53699;BME280;68408;53.952;27.612;2023-04-08T16:00:55;1018.2;;;14.9;55.1
53699;BME280;68408;53.952;27.612;2023-04-08T16:05:55;1018.3;;;14.8;55.5
53699;BME280;68408;53.952;27.612;2023-04-08T16:11:41;1018.3;;;14.8;55.8
53699;BME280;68408;53.952;27.612;2023-04-08T16:15:55;1018.3;;;14.7;56.2
53699;BME280;68408;53.952;27.612;2023-04-08T16:21:25;1018.3;;;14.6;56.3
53699;BME280;68408;53.952;27.612;2023-04-08T16:26:05;1018.4;;;14.6;56.3
53699;BME280;68408;53.952;27.612;2023-04-08T16:31:11;1018.5;;;14.5;56.4
53699;BME280;68408;53.952;27.612;2023-04-08T16:36:43;1018.5;;;14.5;56.5
53699;BME280;68408;53.952;27.612;2023-04-08T16:40:55;1018.6;;;14.4;56.9
53699;BME280;68408;53.952;27.612;2023-04-08T16:46:27;1018.6;;;14.3;57.3
53699;BME280;68408;53.952;27.612;2023-04-08T16:51:11;1018.7;;;14.2;57.6
53699;BME280;68408;53.952;27.612;2023-04-08T16:56:21;1018.7;;;14.1;57.8
53699;BME280;68408;53.952;27.612;2023-04-08T17:01:45;1018.8;;;14;58
53699;BME280;68408;53.952;27.612;2023-04-08T17:06:19;1018.8;;;13.9;58.3
53699;BME280;68408;53.952;27.612;2023-04-08T17:11:27;1018.9;;;13.9;58.4
53699;BME280;68408;53.952;27.612;2023-04-08T17:16:21;1018.9;;;13.7;58.7
53699;BME280;68408;53.952;27.612;2023-04-08T17:21:11;1018.9;;;13.5;59
53699;BME280;68408;53.952;27.612;2023-04-08T17:26:43;1019;;;13.3;59.3
53699;BME280;68408;53.952;27.612;2023-04-08T17:30:55;1019.1;;;13.2;59.6
53699;BME280;68408;53.952;27.612;2023-04-08T17:36:25;1019.2;;;13.1;60
53699;BME280;68408;53.952;27.612;2023-04-08T17:41:05;1019.2;;;12.9;60.3
53699;BME280;68408;53.952;27.612;2023-04-08T17:46:05;1019.2;;;12.8;60.6
53699;BME280;68408;53.952;27.612;2023-04-08T17:51:43;1019.3;;;12.8;60.9
53699;BME280;68408;53.952;27.612;2023-04-08T17:56:13;1019.3;;;12.7;61
53699;BME280;68408;53.952;27.612;2023-04-08T18:01:25;1019.3;;;12.6;61.2
53699;BME280;68408;53.952;27.612;2023-04-08T18:05:55;1019.3;;;12.6;61.4
53699;BME280;68408;53.952;27.612;2023-04-08T18:11:13;1019.3;;;12.5;61.6
53699;BME280;68408;53.952;27.612;2023-04-08T18:16:45;1019.4;;;12.5;61.9
53699;BME280;68408;53.952;27.612;2023-04-08T18:21:13;1019.4;;;12.4;62.3
53699;BME280;68408;53.952;27.612;2023-04-08T18:26:25;1019.4;;;12.3;62.6
53699;BME280;68408;53.952;27.612;2023-04-08T18:30:55;1019.5;;;12.3;62.7
53699;BME280;68408;53.952;27.612;2023-04-08T18:36:11;1019.5;;;12.3;62.6
53699;BME280;68408;53.952;27.612;2023-04-08T18:41:43;1019.4;;;12.3;62.5
53699;BME280;68408;53.952;27.612;2023-04-08T18:46:11;1019.4;;;12.3;62.5
53699;BME280;68408;53.952;27.612;2023-04-08T18:51:23;1019.4;;;12.3;62.4
53699;BME280;68408;53.952;27.612;2023-04-08T18:56:05;1019.5;;;12.3;62.4
53699;BME280;68408;53.952;27.612;2023-04-08T19:01:04;1019.5;;;12.4;62.3
53699;BME280;68408;53.952;27.612;2023-04-08T19:06:45;1019.5;;;12.4;62.4
53699;BME280;68408;53.952;27.612;2023-04-08T19:11:13;1019.6;;;12.3;62.5
53699;BME280;68408;53.952;27.612;2023-04-08T19:16:27;1019.5;;;12.2;62.8
53699;BME280;68408;53.952;27.612;2023-04-08T19:21:33;1019.5;;;12.2;62.6
53699;BME280;68408;53.952;27.612;2023-04-08T19:26:03;1019.5;;;12.2;62.6
53699;BME280;68408;53.952;27.612;2023-04-08T19:31:43;1019.5;;;12.2;62.6
53699;BME280;68408;53.952;27.612;2023-04-08T19:36:13;1019.5;;;12.1;62.5
53699;BME280;68408;53.952;27.612;2023-04-08T19:41:25;1019.5;;;12.1;62.5
53699;BME280;68408;53.952;27.612;2023-04-08T19:46:05;1019.5;;;12;62.2
53699;BME280;68408;53.952;27.612;2023-04-08T19:51:13;1019.5;;;12;62.2
53699;BME280;68408;53.952;27.612;2023-04-08T19:56:41;1019.4;;;12;62
53699;BME280;68408;53.952;27.612;2023-04-08T20:01:21;1019.5;;;12.1;62.3
53699;BME280;68408;53.952;27.612;2023-04-08T20:06:25;1019.5;;;12.1;62.6
53699;BME280;68408;53.952;27.612;2023-04-08T20:11:09;1019.6;;;12.2;62.6
53699;BME280;68408;53.952;27.612;2023-04-08T20:16:27;1019.6;;;12.2;62.3
53699;BME280;68408;53.952;27.612;2023-04-08T20:21:41;1019.6;;;12.3;61.9
53699;BME280;68408;53.952;27.612;2023-04-08T20:26:05;1019.6;;;12.3;61.2
53699;BME280;68408;53.952;27.612;2023-04-08T20:31:27;1019.5;;;12.3;61
53699;BME280;68408;53.952;27.612;2023-04-08T20:36:05;1019.5;;;12.2;61
53699;BME280;68408;53.952;27.612;2023-04-08T20:41:43;1019.5;;;12.2;61.1
53699;BME280;68408;53.952;27.612;2023-04-08T20:46:41;1019.5;;;12.1;60.9
53699;BME280;68408;53.952;27.612;2023-04-08T20:51:11;1019.5;;;12.1;61
53699;BME280;68408;53.952;27.612;2023-04-08T20:56:09;1019.5;;;12;61.3
53699;BME280;68408;53.952;27.612;2023-04-08T21:01:05;1019.5;;;12;61.2
53699;BME280;68408;53.952;27.612;2023-04-08T21:06:14;1019.5;;;12;61.2
53699;BME280;68408;53.952;27.612;2023-04-08T21:11:31;1019.6;;;12;61.7
53699;BME280;68408;53.952;27.612;2023-04-08T21:16:11;1019.6;;;11.8;62.4
53699;BME280;68408;53.952;27.612;2023-04-08T21:21:25;1019.6;;;11.6;63.1
53699;BME280;68408;53.952;27.612;2023-04-08T21:26:08;1019.6;;;11.5;63.5
53699;BME280;68408;53.952;27.612;2023-04-08T21:31:13;1019.6;;;11.4;63.7
53699;BME280;68408;53.952;27.612;2023-04-08T21:36:45;1019.7;;;11.3;64.2
53699;BME280;68408;53.952;27.612;2023-04-08T21:40:55;1019.7;;;11.2;64.8
53699;BME280;68408;53.952;27.612;2023-04-08T21:46:25;1019.7;;;11.1;65.4
53699;BME280;68408;53.952;27.612;2023-04-08T21:51:05;1019.7;;;11;65.7
53699;BME280;68408;53.952;27.612;2023-04-08T21:56:11;1019.7;;;10.9;66.2
53699;BME280;68408;53.952;27.612;2023-04-08T22:00:55;1019.7;;;10.8;66.6
53699;BME280;68408;53.952;27.612;2023-04-08T22:06:45;1019.7;;;10.8;66.8
53699;BME280;68408;53.952;27.612;2023-04-08T22:11:35;1019.7;;;10.8;67
53699;BME280;68408;53.952;27.612;2023-04-08T22:16:05;1019.7;;;10.7;67.2
53699;BME280;68408;53.952;27.612;2023-04-08T22:21:43;1019.7;;;10.7;67.3
53699;BME280;68408;53.952;27.612;2023-04-08T22:26:21;1019.7;;;10.7;67.5
53699;BME280;68408;53.952;27.612;2023-04-08T22:31:43;1019.7;;;10.7;67.5
53699;BME280;68408;53.952;27.612;2023-04-08T22:36:33;1019.8;;;10.7;67.4
53699;BME280;68408;53.952;27.612;2023-04-08T22:41:05;1019.7;;;10.7;67.4
53699;BME280;68408;53.952;27.612;2023-04-08T22:46:33;1019.7;;;10.7;67.4
53699;BME280;68408;53.952;27.612;2023-04-08T22:51:43;1019.7;;;10.7;67.2
53699;BME280;68408;53.952;27.612;2023-04-08T22:56:43;1019.7;;;10.6;67.3
53699;BME280;68408;53.952;27.612;2023-04-08T23:01:35;1019.7;;;10.5;67.6
53699;BME280;68408;53.952;27.612;2023-04-08T23:06:05;1019.7;;;10.4;67.9
53699;BME280;68408;53.952;27.612;2023-04-08T23:11:25;1019.7;;;10.3;68.4
53699;BME280;68408;53.952;27.612;2023-04-08T23:16:19;1019.7;;;10.3;68.6
53699;BME280;68408;53.952;27.612;2023-04-08T23:21:41;1019.7;;;10.2;68.8
53699;BME280;68408;53.952;27.612;2023-04-08T23:26:15;1019.7;;;10.1;69
53699;BME280;68408;53.952;27.612;2023-04-08T23:30:55;1019.8;;;10;69.1
53699;BME280;68408;53.952;27.612;2023-04-08T23:36:35;1019.7;;;9.9;69.5
53699;BME280;68408;53.952;27.612;2023-04-08T23:41:29;1019.7;;;9.8;69.6
53699;BME280;68408;53.952;27.612;2023-04-08T23:46:43;1019.7;;;9.8;69.7
53699;BME280;68408;53.952;27.612;2023-04-08T23:51:34;1019.7;;;9.8;69.5
53699;BME280;68408;53.952;27.612;2023-04-08T23:56:06;1019.6;;;9.7;69.5
